Time;durP1;ratioP1;P1;durP2;ratioP2;P2;SDS_P1;SDS_P2;PMS_P1;PMS_P2;Temp;Humidity;BMP_temperature;BMP_pressure;BME280_temperature;BME280_humidity;BME280_pressure;Samples;Min_cycle;Max_cycle;Signal;HPM_P1;HPM_P2
2022/04/25 00:01:01;;;;;;;2.20;1.50;;;;;;;;;;4526048;28;20046;-62
2022/04/25 00:03:11;;;;;;;2.77;1.60;;;;;;;;;;4528796;28;20035;-63
2022/04/25 00:05:21;;;;;;;2.50;1.40;;;;;;;;;;4510489;28;25007;-63
2022/04/25 00:07:32;;;;;;;1.60;1.10;;;;;;;;;;4527008;28;20386;-63
2022/04/25 00:09:43;;;;;;;1.63;1.30;;;;;;;;;;4528943;28;23940;-63
2022/04/25 00:11:53;;;;;;;1.55;0.82;;;;;;;;;;4527297;28;20107;-63
2022/04/25 00:14:06;;;;;;;0.80;0.70;;;;;;;;;;4527797;28;20080;-63
2022/04/25 00:16:18;;;;;;;1.00;0.80;;;;;;;;;;4527828;28;21297;-63
2022/04/25 00:18:29;;;;;;;1.42;0.90;;;;;;;;;;4529177;28;20029;-63
2022/04/25 00:20:39;;;;;;;2.07;1.10;;;;;;;;;;4522995;28;20021;-63
2022/04/25 00:22:50;;;;;;;1.30;1.17;;;;;;;;;;4526928;28;32179;-63
2022/04/25 00:25:02;;;;;;;1.07;0.80;;;;;;;;;;4526535;28;20552;-63
2022/04/25 00:27:13;;;;;;;1.35;1.00;;;;;;;;;;4527659;28;20029;-63
2022/04/25 00:29:23;;;;;;;0.83;0.70;;;;;;;;;;4527059;28;20944;-63
2022/04/25 00:31:34;;;;;;;1.07;0.90;;;;;;;;;;4528222;28;20021;-63
2022/04/25 00:33:44;;;;;;;1.07;0.97;;;;;;;;;;4527626;28;20029;-63
2022/04/25 00:35:54;;;;;;;1.60;1.00;;;;;;;;;;4528560;28;20436;-63
2022/04/25 00:38:05;;;;;;;1.70;1.03;;;;;;;;;;4528733;28;20107;-63
2022/04/25 00:40:18;;;;;;;1.97;1.17;;;;;;;;;;4513689;28;20049;-63
2022/04/25 00:42:28;;;;;;;1.92;1.20;;;;;;;;;;4527163;28;20032;-63
2022/04/25 00:44:39;;;;;;;1.73;0.90;;;;;;;;;;4528648;28;20036;-63
2022/04/25 00:46:53;;;;;;;1.23;1.00;;;;;;;;;;4517420;28;20454;-63
2022/04/25 00:49:04;;;;;;;1.20;0.70;;;;;;;;;;4501917;28;20045;-63
2022/04/25 00:51:15;;;;;;;1.05;0.70;;;;;;;;;;4527058;28;20017;-63
2022/04/25 00:53:25;;;;;;;1.23;0.65;;;;;;;;;;4490466;28;20038;-63
2022/04/25 00:55:36;;;;;;;1.50;0.60;;;;;;;;;;4528222;28;20029;-63
2022/04/25 00:57:47;;;;;;;0.50;0.50;;;;;;;;;;4510931;28;20987;-63
2022/04/25 00:59:58;;;;;;;1.00;0.50;;;;;;;;;;4527594;28;20114;-63
2022/04/25 01:02:08;;;;;;;0.55;0.40;;;;;;;;;;4526253;28;20017;-62
2022/04/25 01:04:19;;;;;;;0.43;0.43;;;;;;;;;;4529701;28;20481;-62
2022/04/25 01:06:30;;;;;;;0.50;0.50;;;;;;;;;;4527573;28;20025;-63
2022/04/25 01:08:40;;;;;;;0.40;0.40;;;;;;;;;;4527707;28;20515;-63
2022/04/25 01:10:51;;;;;;;1.50;0.70;;;;;;;;;;4528661;28;20033;-63
2022/04/25 01:13:01;;;;;;;0.63;0.60;;;;;;;;;;4515463;28;38844;-62
2022/04/25 01:15:12;;;;;;;0.50;0.50;;;;;;;;;;4528637;28;20022;-63
2022/04/25 01:17:23;;;;;;;0.90;0.60;;;;;;;;;;4516392;28;20034;-63
2022/04/25 01:19:34;;;;;;;0.57;0.57;;;;;;;;;;4527095;28;27963;-63
2022/04/25 01:21:50;;;;;;;0.50;0.50;;;;;;;;;;4526128;28;20033;-63
2022/04/25 01:29:01;;;;;;;0.70;0.68;;;;;;;;;;4527977;28;20080;-63
2022/04/25 01:31:11;;;;;;;0.95;0.52;;;;;;;;;;4510352;28;20100;-63
2022/04/25 01:33:22;;;;;;;0.43;0.43;;;;;;;;;;4527817;28;20025;-63
2022/04/25 01:35:32;;;;;;;0.50;0.50;;;;;;;;;;4499877;28;20034;-65
2022/04/25 01:37:42;;;;;;;0.60;0.60;;;;;;;;;;4528798;28;20041;-63
2022/04/25 01:39:56;;;;;;;1.33;0.60;;;;;;;;;;4527645;28;20100;-63
2022/04/25 01:42:07;;;;;;;0.50;0.50;;;;;;;;;;4529632;28;20877;-63
2022/04/25 01:44:18;;;;;;;0.93;0.60;;;;;;;;;;4512701;28;20087;-63
2022/04/25 01:46:28;;;;;;;0.47;0.47;;;;;;;;;;4527425;28;20031;-63
2022/04/25 01:48:39;;;;;;;1.43;0.70;;;;;;;;;;4528255;28;20524;-63
2022/04/25 01:50:49;;;;;;;0.70;0.60;;;;;;;;;;4514205;28;20052;-63
2022/04/25 01:53:00;;;;;;;1.60;0.80;;;;;;;;;;4527041;28;20113;-63
2022/04/25 01:55:10;;;;;;;1.33;0.60;;;;;;;;;;4527070;28;22796;-63
2022/04/25 01:57:21;;;;;;;1.07;0.70;;;;;;;;;;4524445;28;20021;-63
2022/04/25 01:59:31;;;;;;;0.67;0.60;;;;;;;;;;4508135;28;20036;-62
2022/04/25 02:01:43;;;;;;;0.50;0.50;;;;;;;;;;4527978;28;20061;-63
2022/04/25 02:03:53;;;;;;;0.63;0.60;;;;;;;;;;4515200;28;20639;-62
2022/04/25 02:06:03;;;;;;;0.60;0.60;;;;;;;;;;4518549;28;20120;-63
2022/04/25 02:08:14;;;;;;;1.27;0.87;;;;;;;;;;4516066;28;20046;-63
2022/04/25 02:10:24;;;;;;;1.30;0.80;;;;;;;;;;4527184;28;20227;-63
2022/04/25 02:12:35;;;;;;;1.10;0.70;;;;;;;;;;4515353;28;20382;-63
2022/04/25 02:14:46;;;;;;;2.93;0.83;;;;;;;;;;4527231;28;20032;-63
2022/04/25 02:17:00;;;;;;;1.10;0.70;;;;;;;;;;4515879;28;20340;-63
2022/04/25 02:19:10;;;;;;;0.73;0.70;;;;;;;;;;4513805;28;20105;-63
2022/04/25 02:21:21;;;;;;;0.67;0.57;;;;;;;;;;4525382;28;28491;-63
2022/04/25 02:23:32;;;;;;;1.37;0.80;;;;;;;;;;4510861;28;20090;-63
2022/04/25 02:25:42;;;;;;;0.70;0.60;;;;;;;;;;4528757;28;20732;-62
2022/04/25 02:27:53;;;;;;;1.00;0.60;;;;;;;;;;4531942;28;20021;-63
2022/04/25 02:30:04;;;;;;;0.87;0.80;;;;;;;;;;4532899;28;27407;-63
2022/04/25 02:32:14;;;;;;;1.50;0.80;;;;;;;;;;4519317;28;20025;-66
2022/04/25 02:34:25;;;;;;;1.00;0.70;;;;;;;;;;4531098;28;20590;-63
2022/04/25 02:36:35;;;;;;;0.70;0.70;;;;;;;;;;4511459;28;20557;-63
2022/04/25 02:38:46;;;;;;;0.90;0.70;;;;;;;;;;4528281;28;20424;-63
2022/04/25 02:41:05;;;;;;;1.40;0.80;;;;;;;;;;4530400;28;20061;-63
2022/04/25 02:43:16;;;;;;;0.70;0.70;;;;;;;;;;4530487;28;20024;-63
2022/04/25 02:45:26;;;;;;;0.97;0.87;;;;;;;;;;4532134;28;20051;-63
2022/04/25 02:47:36;;;;;;;1.47;0.70;;;;;;;;;;4529367;28;20484;-63
2022/04/25 02:49:47;;;;;;;1.00;0.90;;;;;;;;;;4530630;28;34423;-63
2022/04/25 02:51:57;;;;;;;0.80;0.70;;;;;;;;;;4526552;28;42358;-63
2022/04/25 02:54:08;;;;;;;1.30;0.80;;;;;;;;;;4531167;28;20099;-63
2022/04/25 02:56:18;;;;;;;0.90;0.80;;;;;;;;;;4528615;28;20501;-62
2022/04/25 02:58:30;;;;;;;0.70;0.67;;;;;;;;;;4527342;28;22639;-63
2022/04/25 03:00:41;;;;;;;1.23;0.90;;;;;;;;;;4530080;28;20112;-63
2022/04/25 03:02:51;;;;;;;0.77;0.77;;;;;;;;;;4529769;28;20031;-63
2022/04/25 03:05:02;;;;;;;1.37;0.80;;;;;;;;;;4527395;28;28377;-63
2022/04/25 03:07:12;;;;;;;1.37;0.73;;;;;;;;;;4529666;28;20018;-63
2022/04/25 03:09:23;;;;;;;0.70;0.70;;;;;;;;;;4529196;28;20127;-63
2022/04/25 03:11:35;;;;;;;1.43;0.90;;;;;;;;;;4527795;28;20025;-63
2022/04/25 03:13:45;;;;;;;1.05;0.80;;;;;;;;;;4528201;28;20805;-62
2022/04/25 03:15:56;;;;;;;0.83;0.73;;;;;;;;;;4529532;28;20380;-63
2022/04/25 03:18:07;;;;;;;1.03;0.90;;;;;;;;;;4530523;28;34264;-63
2022/04/25 03:20:18;;;;;;;1.55;0.90;;;;;;;;;;4530847;28;20941;-63
2022/04/25 03:22:29;;;;;;;1.15;0.77;;;;;;;;;;4518868;28;20645;-63
2022/04/25 03:24:39;;;;;;;0.93;0.80;;;;;;;;;;4518216;28;29631;-63
2022/04/25 03:26:50;;;;;;;0.90;0.67;;;;;;;;;;4529908;28;20035;-62
2022/04/25 03:29:00;;;;;;;1.33;1.00;;;;;;;;;;4527222;28;20045;-63
2022/04/25 03:31:11;;;;;;;0.97;0.80;;;;;;;;;;4528588;28;20593;-63
2022/04/25 03:33:21;;;;;;;1.10;0.80;;;;;;;;;;4510052;28;20026;-63
2022/04/25 03:35:32;;;;;;;0.80;0.63;;;;;;;;;;4529996;28;20064;-63
2022/04/25 03:37:44;;;;;;;1.00;0.75;;;;;;;;;;4511149;28;20029;-63
2022/04/25 03:39:55;;;;;;;0.90;0.88;;;;;;;;;;4501461;28;20054;-63
2022/04/25 03:42:05;;;;;;;1.33;1.07;;;;;;;;;;4529233;28;20033;-62
2022/04/25 03:44:16;;;;;;;1.10;1.00;;;;;;;;;;4526835;28;20029;-63
2022/04/25 03:46:27;;;;;;;1.10;1.00;;;;;;;;;;4527351;28;20409;-63
2022/04/25 03:48:40;;;;;;;1.10;0.98;;;;;;;;;;4482234;28;20039;-63
2022/04/25 03:50:50;;;;;;;1.38;0.90;;;;;;;;;;4509554;28;20371;-63
2022/04/25 03:53:06;;;;;;;1.00;0.90;;;;;;;;;;4529031;28;20017;-63
2022/04/25 03:57:47;;;;;;;1.02;0.98;;;;;;;;;;4528932;28;21650;-65
2022/04/25 03:59:57;;;;;;;1.08;0.80;;;;;;;;;;4510073;28;20014;-63
2022/04/25 04:02:08;;;;;;;0.87;0.87;;;;;;;;;;4530197;28;24526;-63
2022/04/25 04:04:19;;;;;;;1.08;0.80;;;;;;;;;;4528790;28;20036;-63
2022/04/25 04:06:29;;;;;;;1.37;1.10;;;;;;;;;;4529573;28;20032;-63
2022/04/25 04:08:40;;;;;;;0.90;0.90;;;;;;;;;;4530115;28;20493;-63
2022/04/25 04:10:50;;;;;;;1.63;1.07;;;;;;;;;;4511793;28;20040;-63
2022/04/25 04:13:00;;;;;;;1.90;1.10;;;;;;;;;;4506923;28;44192;-63
2022/04/25 04:15:12;;;;;;;1.10;1.00;;;;;;;;;;4527046;28;38485;-64
2022/04/25 04:17:22;;;;;;;0.82;0.80;;;;;;;;;;4530514;28;20033;-63
2022/04/25 04:19:33;;;;;;;1.00;0.90;;;;;;;;;;4528253;28;20025;-63
2022/04/25 04:21:44;;;;;;;1.30;0.93;;;;;;;;;;4528292;28;20025;-63
2022/04/25 04:23:54;;;;;;;1.67;1.00;;;;;;;;;;4528677;28;24081;-63
2022/04/25 04:26:04;;;;;;;1.53;1.23;;;;;;;;;;4527680;28;20029;-63
2022/04/25 04:28:15;;;;;;;1.53;1.03;;;;;;;;;;4527429;28;20017;-63
2022/04/25 04:30:25;;;;;;;1.47;1.30;;;;;;;;;;4509431;28;20025;-63
2022/04/25 04:32:38;;;;;;;1.20;1.10;;;;;;;;;;4527718;28;20056;-63
2022/04/25 04:34:49;;;;;;;1.73;1.20;;;;;;;;;;4528050;28;20033;-63
2022/04/25 04:36:59;;;;;;;1.43;1.10;;;;;;;;;;4529202;28;20018;-63
2022/04/25 04:39:10;;;;;;;2.33;1.37;;;;;;;;;;4511480;28;20520;-65
2022/04/25 04:41:20;;;;;;;1.70;1.17;;;;;;;;;;4526361;28;25028;-64
2022/04/25 04:43:31;;;;;;;1.33;1.20;;;;;;;;;;4527293;28;20029;-63
2022/04/25 04:45:43;;;;;;;1.30;1.20;;;;;;;;;;4527958;28;20565;-63
2022/04/25 04:47:54;;;;;;;2.60;1.33;;;;;;;;;;4516864;28;20034;-63
2022/04/25 04:50:10;;;;;;;1.40;1.30;;;;;;;;;;4511174;28;20037;-64
2022/04/25 04:52:21;;;;;;;1.67;1.40;;;;;;;;;;4510329;28;20141;-64
2022/04/25 04:54:31;;;;;;;2.07;1.50;;;;;;;;;;4528862;28;20035;-63
2022/04/25 04:56:42;;;;;;;1.87;1.60;;;;;;;;;;4511768;28;26170;-63
2022/04/25 04:58:53;;;;;;;1.43;1.33;;;;;;;;;;4528099;28;20072;-63
2022/04/25 05:01:03;;;;;;;2.13;1.60;;;;;;;;;;4527081;28;20029;-63
2022/04/25 05:03:13;;;;;;;1.53;1.43;;;;;;;;;;4525835;28;20065;-62
2022/04/25 05:05:25;;;;;;;1.90;1.60;;;;;;;;;;4525564;28;20068;-64
2022/04/25 05:07:35;;;;;;;1.85;1.58;;;;;;;;;;4510619;28;20624;-63
2022/04/25 05:09:46;;;;;;;2.40;1.53;;;;;;;;;;4526845;28;20056;-63
2022/04/25 05:11:56;;;;;;;1.73;1.47;;;;;;;;;;4516531;28;20034;-63
2022/04/25 05:14:09;;;;;;;2.00;1.70;;;;;;;;;;4516861;28;20044;-63
2022/04/25 05:16:19;;;;;;;1.48;1.30;;;;;;;;;;4527908;28;20205;-63
2022/04/25 05:18:32;;;;;;;1.60;1.37;;;;;;;;;;4526342;28;20044;-65
2022/04/25 05:20:42;;;;;;;1.50;1.40;;;;;;;;;;4500804;28;20069;-62
2022/04/25 05:22:53;;;;;;;1.93;1.57;;;;;;;;;;4518115;28;24976;-63
2022/04/25 05:25:04;;;;;;;1.50;1.40;;;;;;;;;;4508448;28;20045;-63
2022/04/25 05:27:14;;;;;;;1.83;1.63;;;;;;;;;;4527919;28;20148;-63
2022/04/25 05:29:24;;;;;;;2.13;1.50;;;;;;;;;;4526405;28;20284;-63
2022/04/25 05:31:35;;;;;;;2.13;1.70;;;;;;;;;;4527270;28;20029;-63
2022/04/25 05:33:45;;;;;;;1.97;1.60;;;;;;;;;;4526643;28;20069;-63
2022/04/25 05:35:56;;;;;;;1.80;1.50;;;;;;;;;;4496003;28;20029;-63
2022/04/25 05:38:06;;;;;;;1.40;1.30;;;;;;;;;;4527941;28;20040;-63
2022/04/25 05:40:18;;;;;;;2.00;1.63;;;;;;;;;;4527941;28;20033;-62
2022/04/25 05:42:28;;;;;;;1.95;1.50;;;;;;;;;;4527005;28;20068;-63
2022/04/25 05:44:39;;;;;;;3.47;1.73;;;;;;;;;;4528995;28;20121;-63
2022/04/25 05:46:49;;;;;;;2.23;1.70;;;;;;;;;;4511695;28;20044;-63
2022/04/25 05:53:58;;;;;;;2.38;1.88;;;;;;;;;;4527747;28;20269;-63
2022/04/25 05:56:08;;;;;;;2.70;2.00;;;;;;;;;;4516039;28;20108;-63
2022/04/25 05:58:18;;;;;;;3.07;2.20;;;;;;;;;;4526211;28;20040;-63
2022/04/25 06:00:30;;;;;;;2.83;2.20;;;;;;;;;;4528692;28;22028;-63
2022/04/25 06:02:41;;;;;;;2.88;2.20;;;;;;;;;;4502050;28;20073;-63
2022/04/25 06:04:52;;;;;;;2.45;2.15;;;;;;;;;;4529926;28;20034;-63
2022/04/25 06:07:04;;;;;;;3.13;2.50;;;;;;;;;;4529393;28;20041;-63
2022/04/25 06:09:16;;;;;;;3.35;2.30;;;;;;;;;;4532154;28;20037;-63
2022/04/25 06:11:27;;;;;;;3.22;2.50;;;;;;;;;;4528511;28;20118;-62
2022/04/25 06:13:37;;;;;;;3.90;2.80;;;;;;;;;;4529506;28;20118;-63
2022/04/25 06:15:47;;;;;;;2.90;2.57;;;;;;;;;;4528343;28;20044;-63
2022/04/25 06:17:58;;;;;;;4.00;2.40;;;;;;;;;;4530069;28;20059;-63
2022/04/25 06:20:10;;;;;;;2.85;2.10;;;;;;;;;;4513233;28;20116;-63
2022/04/25 06:22:20;;;;;;;3.33;2.30;;;;;;;;;;4503260;28;20123;-63
2022/04/25 06:24:31;;;;;;;3.53;2.30;;;;;;;;;;4533032;28;20695;-63
2022/04/25 06:26:41;;;;;;;3.80;2.60;;;;;;;;;;4529323;28;28041;-63
2022/04/25 06:28:52;;;;;;;3.00;2.50;;;;;;;;;;4530890;28;20211;-63
2022/04/25 06:31:02;;;;;;;3.83;2.50;;;;;;;;;;4530449;28;20712;-63
2022/04/25 06:33:12;;;;;;;3.63;2.87;;;;;;;;;;4515294;28;33023;-63
2022/04/25 06:35:23;;;;;;;3.93;3.00;;;;;;;;;;4515153;28;20045;-63
2022/04/25 06:37:34;;;;;;;3.58;2.83;;;;;;;;;;4513047;28;20034;-64
2022/04/25 06:39:44;;;;;;;4.20;2.63;;;;;;;;;;4530653;28;20060;-63
2022/04/25 06:41:55;;;;;;;4.03;2.93;;;;;;;;;;4528575;28;20064;-63
2022/04/25 06:44:06;;;;;;;5.17;3.10;;;;;;;;;;4519268;28;20038;-63
2022/04/25 06:46:16;;;;;;;3.90;2.78;;;;;;;;;;4497829;28;20852;-63
2022/04/25 06:48:27;;;;;;;3.60;2.87;;;;;;;;;;4532490;28;20166;-63
2022/04/25 06:50:37;;;;;;;3.70;2.63;;;;;;;;;;4528938;28;20033;-63
2022/04/25 06:52:48;;;;;;;4.00;2.67;;;;;;;;;;4530955;28;20036;-63
2022/04/25 06:54:58;;;;;;;3.93;2.77;;;;;;;;;;4512886;28;20052;-63
2022/04/25 06:57:09;;;;;;;4.67;3.07;;;;;;;;;;4526236;28;20039;-63
2022/04/25 06:59:21;;;;;;;3.90;3.10;;;;;;;;;;4530250;28;20025;-64
2022/04/25 07:01:32;;;;;;;3.13;2.65;;;;;;;;;;4529724;28;20033;-63
2022/04/25 07:03:43;;;;;;;4.05;2.90;;;;;;;;;;4526780;28;20123;-63
2022/04/25 07:05:55;;;;;;;4.77;2.83;;;;;;;;;;4527215;28;20129;-63
2022/04/25 07:08:05;;;;;;;3.97;2.63;;;;;;;;;;4506880;28;21158;-63
2022/04/25 07:10:16;;;;;;;4.53;2.80;;;;;;;;;;4527978;28;20076;-64
2022/04/25 07:12:27;;;;;;;5.10;3.17;;;;;;;;;;4500932;28;20041;-63
2022/04/25 07:14:37;;;;;;;5.05;2.97;;;;;;;;;;4531276;28;20041;-63
2022/04/25 07:16:48;;;;;;;3.20;2.70;;;;;;;;;;4532107;28;20397;-63
2022/04/25 07:18:59;;;;;;;3.70;2.75;;;;;;;;;;4519321;28;20033;-64
2022/04/25 07:28:48;;;;;;;2.70;2.30;;;;;;;;;;4517994;28;20056;-63
2022/04/25 07:30:59;;;;;;;2.80;2.33;;;;;;;;;;4531551;28;20033;-63
2022/04/25 07:33:09;;;;;;;3.33;2.57;;;;;;;;;;4521281;28;20038;-63
2022/04/25 07:35:21;;;;;;;4.13;2.70;;;;;;;;;;4519077;28;20120;-64
2022/04/25 07:37:33;;;;;;;3.03;2.45;;;;;;;;;;4530087;28;20824;-63
2022/04/25 07:39:45;;;;;;;3.92;2.58;;;;;;;;;;4519368;28;20033;-63
2022/04/25 07:41:57;;;;;;;3.88;2.78;;;;;;;;;;4502878;28;20080;-63
2022/04/25 07:44:07;;;;;;;4.55;2.60;;;;;;;;;;4530191;28;20033;-63
2022/04/25 07:46:23;;;;;;;3.50;2.70;;;;;;;;;;4529848;28;23517;-63
2022/04/25 07:48:34;;;;;;;4.28;2.83;;;;;;;;;;4532737;28;20654;-63
2022/04/25 07:50:44;;;;;;;4.18;2.70;;;;;;;;;;4530927;28;20044;-63
2022/04/25 07:52:55;;;;;;;3.10;2.60;;;;;;;;;;4530686;28;20048;-63
2022/04/25 07:55:07;;;;;;;3.57;2.70;;;;;;;;;;4530789;28;20087;-63
2022/04/25 07:57:17;;;;;;;4.20;2.78;;;;;;;;;;4529148;28;20041;-63
2022/04/25 07:59:28;;;;;;;3.87;2.70;;;;;;;;;;4529823;28;20021;-63
2022/04/25 08:01:38;;;;;;;3.87;2.80;;;;;;;;;;4529277;28;25868;-63
2022/04/25 08:03:48;;;;;;;3.47;2.50;;;;;;;;;;4531211;28;20477;-63
2022/04/25 08:05:59;;;;;;;3.83;2.70;;;;;;;;;;4529039;28;20044;-63
2022/04/25 08:08:09;;;;;;;3.43;2.50;;;;;;;;;;4529995;28;20053;-63
2022/04/25 08:10:20;;;;;;;5.03;2.60;;;;;;;;;;4529820;28;20518;-63
2022/04/25 08:19:58;;;;;;;4.07;3.03;;;;;;;;;;4529581;28;20100;-63
2022/04/25 08:22:09;;;;;;;3.97;2.90;;;;;;;;;;4528691;28;20993;-64
2022/04/25 08:24:20;;;;;;;;;;;;;;;;;;4528877;28;20237;-63
2022/04/25 08:26:30;;;;;;;3.80;2.78;;;;;;;;;;4505785;28;20453;-63
2022/04/25 08:28:41;;;;;;;3.40;2.77;;;;;;;;;;4514694;28;20042;-63
2022/04/25 08:30:52;;;;;;;4.13;2.93;;;;;;;;;;4531734;28;20099;-64
2022/04/25 08:33:02;;;;;;;4.53;2.80;;;;;;;;;;4531344;28;20029;-65
2022/04/25 08:35:14;;;;;;;5.50;3.10;;;;;;;;;;4514456;28;20153;-63
2022/04/25 08:37:24;;;;;;;5.40;3.13;;;;;;;;;;4528703;28;20640;-63
2022/04/25 08:39:34;;;;;;;3.77;2.90;;;;;;;;;;4518011;28;20154;-63
2022/04/25 08:41:46;;;;;;;4.23;2.80;;;;;;;;;;4528486;28;20116;-64
2022/04/25 08:43:58;;;;;;;5.63;3.22;;;;;;;;;;4512150;28;20034;-63
2022/04/25 08:46:10;;;;;;;3.75;2.72;;;;;;;;;;4530866;28;20044;-63
2022/04/25 08:48:21;;;;;;;3.47;2.90;;;;;;;;;;4530329;28;20107;-63
2022/04/25 08:50:32;;;;;;;4.32;3.03;;;;;;;;;;4526645;28;20072;-63
2022/04/25 08:52:43;;;;;;;;;;;;;;;;;;4529221;28;20552;-64
2022/04/25 08:54:57;;;;;;;4.13;3.22;;;;;;;;;;4511666;28;19918;-63
2022/04/25 08:57:07;;;;;;;3.97;3.10;;;;;;;;;;4512391;28;20079;-63
2022/04/25 08:59:18;;;;;;;4.10;2.77;;;;;;;;;;4528359;28;28278;-63
2022/04/25 09:01:29;;;;;;;4.18;3.15;;;;;;;;;;4495762;28;20905;-63
2022/04/25 09:03:39;;;;;;;5.50;3.40;;;;;;;;;;4530595;28;20112;-63
2022/04/25 09:05:49;;;;;;;4.67;3.20;;;;;;;;;;4518147;28;20025;-63
2022/04/25 09:08:00;;;;;;;4.50;2.77;;;;;;;;;;4530761;28;20025;-63
2022/04/25 09:10:13;;;;;;;6.97;3.00;;;;;;;;;;4528979;28;20052;-62
2022/04/25 09:12:24;;;;;;;3.53;2.92;;;;;;;;;;4529294;28;20014;-62
2022/04/25 09:14:37;;;;;;;3.92;3.05;;;;;;;;;;4511718;28;20560;-63
2022/04/25 09:16:48;;;;;;;4.75;3.25;;;;;;;;;;4518825;28;20607;-62
2022/04/25 09:18:58;;;;;;;4.07;2.97;;;;;;;;;;4512920;28;20123;-62
2022/04/25 09:21:14;;;;;;;4.90;3.13;;;;;;;;;;4529740;28;20459;-62
2022/04/25 09:23:24;;;;;;;5.05;3.00;;;;;;;;;;4509675;28;20045;-62
2022/04/25 09:25:34;;;;;;;4.87;3.30;;;;;;;;;;4528598;28;20797;-62
2022/04/25 09:27:47;;;;;;;4.93;3.17;;;;;;;;;;4513933;28;20033;-62
2022/04/25 09:30:12;;;;;;;4.60;3.20;;;;;;;;;;4530107;28;20052;-62
2022/04/25 09:32:31;;;;;;;4.53;3.22;;;;;;;;;;4528735;28;20998;-62
2022/04/25 09:35:00;;;;;;;3.72;3.10;;;;;;;;;;4517765;28;20094;-62
2022/04/25 09:37:10;;;;;;;4.07;3.05;;;;;;;;;;4528934;28;20025;-62
2022/04/25 09:39:30;;;;;;;4.53;3.10;;;;;;;;;;4510664;28;20028;-62
2022/04/25 09:41:45;;;;;;;5.50;3.40;;;;;;;;;;4511536;28;20037;-62
2022/04/25 09:43:58;;;;;;;5.80;3.40;;;;;;;;;;4529146;28;20032;-62
2022/04/25 09:46:10;;;;;;;4.40;3.08;;;;;;;;;;4510759;28;20045;-62
2022/04/25 09:48:23;;;;;;;4.50;3.13;;;;;;;;;;4527818;28;20509;-62
2022/04/25 09:50:33;;;;;;;5.30;3.10;;;;;;;;;;4529007;28;20025;-62
2022/04/25 09:52:57;;;;;;;5.30;3.20;;;;;;;;;;4526118;28;20030;-62
2022/04/25 09:55:15;;;;;;;4.15;3.05;;;;;;;;;;4512285;28;20095;-62
2022/04/25 09:57:30;;;;;;;4.10;2.95;;;;;;;;;;4510108;28;20034;-62
2022/04/25 09:59:44;;;;;;;4.60;3.30;;;;;;;;;;4527287;28;20040;-62
2022/04/25 10:02:24;;;;;;;4.82;3.17;;;;;;;;;;4526642;28;20121;-62
2022/04/25 10:04:37;;;;;;;3.72;3.05;;;;;;;;;;4528941;28;20977;-62
2022/04/25 10:06:49;;;;;;;4.95;3.55;;;;;;;;;;4508813;28;20034;-62
2022/04/25 10:09:04;;;;;;;3.83;2.78;;;;;;;;;;4504915;28;25079;-63
2022/04/25 10:11:16;;;;;;;4.97;3.28;;;;;;;;;;4517770;28;20953;-62
2022/04/25 10:13:26;;;;;;;;;;;;;;;;;;4511895;28;20068;-62
2022/04/25 10:15:38;;;;;;;4.63;3.15;;;;;;;;;;4530074;28;20528;-63
2022/04/25 10:17:48;;;;;;;5.28;3.40;;;;;;;;;;4527987;28;20021;-62
2022/04/25 10:20:00;;;;;;;3.60;2.80;;;;;;;;;;4527673;28;20026;-62
2022/04/25 10:22:10;;;;;;;4.70;3.58;;;;;;;;;;4528029;28;20021;-63
2022/04/25 10:24:21;;;;;;;3.97;2.90;;;;;;;;;;4528079;28;20037;-63
2022/04/25 10:26:32;;;;;;;4.70;3.40;;;;;;;;;;4530283;28;20025;-62
2022/04/25 10:28:54;;;;;;;4.50;3.23;;;;;;;;;;4527788;28;26192;-63
2022/04/25 10:31:10;;;;;;;4.15;3.20;;;;;;;;;;4527507;28;20025;-63
2022/04/25 10:33:21;;;;;;;5.00;3.47;;;;;;;;;;4517518;28;20049;-63
2022/04/25 10:35:32;;;;;;;4.75;3.20;;;;;;;;;;4526209;28;20025;-63
2022/04/25 10:37:44;;;;;;;4.70;3.17;;;;;;;;;;4516314;28;20053;-62
2022/04/25 10:39:55;;;;;;;4.90;3.30;;;;;;;;;;4526593;28;20017;-62
2022/04/25 10:44:35;;;;;;;4.57;3.30;;;;;;;;;;4525183;28;20465;-63
2022/04/25 10:47:04;;;;;;;3.58;2.85;;;;;;;;;;4528577;28;20630;-62
2022/04/25 10:49:27;;;;;;;5.40;3.55;;;;;;;;;;4531165;28;20042;-62
2022/04/25 10:51:39;;;;;;;4.03;3.25;;;;;;;;;;4518582;28;20219;-63
2022/04/25 10:54:00;;;;;;;4.50;3.10;;;;;;;;;;4513507;28;20036;-63
2022/04/25 10:56:10;;;;;;;4.53;3.20;;;;;;;;;;4529046;28;20016;-62
2022/04/25 10:58:21;;;;;;;3.13;2.63;;;;;;;;;;4529831;28;20025;-62
2022/04/25 11:00:37;;;;;;;3.65;2.70;;;;;;;;;;4523631;28;20064;-63
2022/04/25 11:03:36;;;;;;;4.03;2.90;;;;;;;;;;4531244;28;20046;-63
2022/04/25 11:05:49;;;;;;;3.95;2.80;;;;;;;;;;4502642;28;20988;-63
2022/04/25 11:08:18;;;;;;;4.03;2.90;;;;;;;;;;4528170;28;20017;-63
2022/04/25 11:10:45;;;;;;;2.60;2.40;;;;;;;;;;4526215;28;20572;-63
2022/04/25 11:12:59;;;;;;;4.47;2.90;;;;;;;;;;4529801;28;20026;-63
2022/04/25 11:15:10;;;;;;;2.72;2.25;;;;;;;;;;4529391;28;20557;-63
2022/04/25 11:17:20;;;;;;;3.60;2.47;;;;;;;;;;4515030;28;20030;-63
2022/04/25 11:19:57;;;;;;;4.30;3.00;;;;;;;;;;4513973;28;20033;-63
2022/04/25 11:22:07;;;;;;;3.38;2.50;;;;;;;;;;4529780;28;20036;-63
2022/04/25 11:24:28;;;;;;;3.47;2.50;;;;;;;;;;4513850;28;27523;-63
2022/04/25 11:26:45;;;;;;;3.85;2.50;;;;;;;;;;4527915;28;20029;-63
2022/04/25 11:28:59;;;;;;;3.35;2.58;;;;;;;;;;4528613;28;20045;-64
2022/04/25 11:31:15;;;;;;;2.25;2.00;;;;;;;;;;4531441;28;20572;-63
2022/04/25 11:33:26;;;;;;;3.00;2.40;;;;;;;;;;4528730;28;20601;-63
2022/04/25 11:35:39;;;;;;;3.50;2.50;;;;;;;;;;4526807;28;20030;-63
2022/04/25 11:37:49;;;;;;;3.65;2.42;;;;;;;;;;4513498;28;20022;-63
2022/04/25 11:40:05;;;;;;;2.33;1.90;;;;;;;;;;4509055;28;20255;-63
2022/04/25 11:42:15;;;;;;;2.85;2.10;;;;;;;;;;4527603;28;20812;-63
2022/04/25 11:44:26;;;;;;;3.17;2.17;;;;;;;;;;4527710;28;20271;-63
2022/04/25 11:46:37;;;;;;;2.63;2.23;;;;;;;;;;4517844;28;20025;-63
2022/04/25 11:48:48;;;;;;;3.13;2.30;;;;;;;;;;4500541;28;20038;-62
2022/04/25 11:50:59;;;;;;;3.20;2.40;;;;;;;;;;4530028;28;20021;-63
2022/04/25 11:53:10;;;;;;;3.13;2.17;;;;;;;;;;4528134;28;20105;-63
2022/04/25 11:55:35;;;;;;;2.22;1.88;;;;;;;;;;4529732;28;20104;-63
2022/04/25 11:57:48;;;;;;;2.80;2.38;;;;;;;;;;4525634;28;20026;-63
2022/04/25 12:00:10;;;;;;;2.95;2.13;;;;;;;;;;4528244;28;20127;-62
2022/04/25 12:02:34;;;;;;;4.25;2.40;;;;;;;;;;4527241;28;20673;-63
2022/04/25 12:04:45;;;;;;;2.67;2.10;;;;;;;;;;4528607;28;20026;-63
2022/04/25 12:06:57;;;;;;;;;;;;;;;;;;4530392;28;20029;-63
2022/04/25 12:16:39;;;;;;;2.05;1.85;;;;;;;;;;4515228;28;20627;-63
2022/04/25 12:18:51;;;;;;;2.20;1.80;;;;;;;;;;4514496;28;20295;-63
2022/04/25 12:21:10;;;;;;;2.58;1.90;;;;;;;;;;4529041;28;20124;-63
2022/04/25 12:23:25;;;;;;;2.28;1.63;;;;;;;;;;4516938;28;20108;-63
2022/04/25 12:25:41;;;;;;;2.33;2.00;;;;;;;;;;4528208;28;20024;-63
2022/04/25 12:28:13;;;;;;;2.20;1.73;;;;;;;;;;4497380;28;20695;-63
2022/04/25 12:30:24;;;;;;;3.05;1.98;;;;;;;;;;4527867;28;20603;-63
2022/04/25 12:32:34;;;;;;;2.03;1.70;;;;;;;;;;4530793;28;20059;-63
2022/04/25 12:34:45;;;;;;;3.70;2.10;;;;;;;;;;4512426;28;20044;-63
2022/04/25 12:36:56;;;;;;;4.23;2.23;;;;;;;;;;4530150;28;20045;-63
2022/04/25 12:39:10;;;;;;;;;;;;;;;;;;4510259;28;20026;-63
2022/04/25 12:41:35;;;;;;;2.70;2.00;;;;;;;;;;4529909;28;19916;-63
2022/04/25 12:43:47;;;;;;;2.35;1.92;;;;;;;;;;4526337;28;20022;-63
2022/04/25 12:45:57;;;;;;;2.60;1.90;;;;;;;;;;4512571;28;20037;-63
2022/04/25 12:48:08;;;;;;;2.47;2.03;;;;;;;;;;4525312;28;20630;-63
2022/04/25 12:50:42;;;;;;;2.97;2.00;;;;;;;;;;4516291;28;20049;-63
2022/04/25 12:52:52;;;;;;;3.15;2.25;;;;;;;;;;4526987;28;20087;-63
2022/04/25 12:55:03;;;;;;;2.33;1.67;;;;;;;;;;4525547;28;38368;-63
2022/04/25 12:57:24;;;;;;;3.50;2.03;;;;;;;;;;4529842;28;20021;-62
2022/04/25 12:59:34;;;;;;;2.50;1.70;;;;;;;;;;4527585;28;20044;-63
2022/04/25 13:01:45;;;;;;;1.93;1.70;;;;;;;;;;4527294;28;20252;-63
2022/04/25 13:04:12;;;;;;;2.07;1.77;;;;;;;;;;4510368;28;20390;-63
2022/04/25 13:06:23;;;;;;;2.00;1.60;;;;;;;;;;4512171;28;20124;-63
2022/04/25 13:08:33;;;;;;;2.53;1.70;;;;;;;;;;4511386;28;20029;-63
2022/04/25 13:10:43;;;;;;;2.87;1.60;;;;;;;;;;4527790;28;20077;-63
2022/04/25 13:12:56;;;;;;;5.50;1.57;;;;;;;;;;4527496;28;20056;-64
2022/04/25 13:15:08;;;;;;;2.33;1.92;;;;;;;;;;4516467;28;20030;-63
2022/04/25 13:17:19;;;;;;;2.10;1.80;;;;;;;;;;4513071;28;20128;-63
2022/04/25 13:19:29;;;;;;;2.07;1.77;;;;;;;;;;4528093;28;20014;-63
2022/04/25 13:21:42;;;;;;;1.47;1.37;;;;;;;;;;4525626;28;20026;-63
2022/04/25 13:23:53;;;;;;;1.60;1.45;;;;;;;;;;4527395;28;20032;-63
2022/04/25 13:26:03;;;;;;;1.90;1.50;;;;;;;;;;4526285;28;20020;-63
2022/04/25 13:28:14;;;;;;;2.40;1.83;;;;;;;;;;4516944;28;44830;-63
2022/04/25 13:30:26;;;;;;;2.17;1.60;;;;;;;;;;4526522;28;23189;-63
2022/04/25 13:32:36;;;;;;;1.88;1.63;;;;;;;;;;4527499;28;20025;-63
2022/04/25 13:34:47;;;;;;;2.00;1.53;;;;;;;;;;4512470;28;20569;-63
2022/04/25 13:36:58;;;;;;;1.53;1.37;;;;;;;;;;4526741;28;20059;-63
2022/04/25 13:39:09;;;;;;;1.77;1.30;;;;;;;;;;4526931;28;20579;-63
2022/04/25 13:41:19;;;;;;;2.03;1.30;;;;;;;;;;4526239;28;20092;-63
2022/04/25 13:43:31;;;;;;;1.00;0.90;;;;;;;;;;4528414;28;20111;-63
2022/04/25 13:45:42;;;;;;;1.08;0.98;;;;;;;;;;4525216;28;20244;-63
2022/04/25 13:47:52;;;;;;;1.90;1.20;;;;;;;;;;4513363;28;20025;-64
2022/04/25 13:50:03;;;;;;;1.27;0.90;;;;;;;;;;4510932;28;20045;-63
2022/04/25 13:52:13;;;;;;;1.60;1.10;;;;;;;;;;4510155;28;20034;-63